APL New Jersey — A8NM6 — position and weather

sailwx.info

Track history (hours):
 
Tides and Currents Weather Stations Pressure Air Temp Water Temp Dewpoint Dewpoint Depression Visibility Wind Speed Wind Dir Waves Ship Positions

APL New Jersey

Last reported at 2015-Feb-22 18:13 UTC. Time now 2015-Mar-02 16:35 UTC.
Position N 22°50' E 119°53'.

Length 293 m; draft 13 m.

Type: Cargo ship. MMSI: 636013522.

Date/timePositionNaut miles runAvg speedWind from/ knotsBaromVisibWave heightAir tempDewpointWater temp
2015-Feb-22 18:13N 22°50' E 119°53'1218.9
2015-Feb-22 17:33N 22°40' E 120°01'1616.4
2015-Feb-22 16:33N 22°33' E 120°17'2 2.1
2015-Feb-22 15:33N 22°34' E 120°19'0 0.0
2015-Feb-22 14:27N 22°34' E 120°19'0 0.0
2015-Feb-22 13:33N 22°34' E 120°19'0 0.0
2015-Feb-22 12:33N 22°34' E 120°19'0 0.0
2015-Feb-22 11:33N 22°34' E 120°19'0 0.0
2015-Feb-22 10:33N 22°34' E 120°19'0 0.0
2015-Feb-22 09:33N 22°34' E 120°19'0 0.0
2015-Feb-22 08:33N 22°34' E 120°19'0 0.0
2015-Feb-22 07:33N 22°34' E 120°19'0 0.0
2015-Feb-22 06:33N 22°34' E 120°19'0 0.0
2015-Feb-22 05:21N 22°34' E 120°19'0 0.0
2015-Feb-22 04:27N 22°34' E 120°19'0 0.0
2015-Feb-22 03:33N 22°34' E 120°19'0 0.0
2015-Feb-22 02:33N 22°34' E 120°19'0 0.0
2015-Feb-22 01:33N 22°34' E 120°19'0 0.0
2015-Feb-22 00:33N 22°34' E 120°19'0 0.0
2015-Feb-21 23:21N 22°34' E 120°19'0 0.0
2015-Feb-21 22:33N 22°34' E 120°19'5 4.9
2015-Feb-21 21:33N 22°32' E 120°14'7 7.0
2015-Feb-21 20:33N 22°31' E 120°07'8 7.8
2015-Feb-21 19:33N 22°30' E 119°58'1212.2
2015-Feb-21 18:33N 22°30' E 119°45'1918.2
2015-Feb-21 17:32N 22°28' E 119°25'27721.3
2015-Feb-21 04:33N 22°07' E 114°27'1514.2
2015-Feb-21 03:28N 22°12' E 114°11'1011.2
2015-Feb-21 02:33N 22°21' E 114°05'1010.0
2015-Feb-21 01:33N 22°23' E 113°54'5 5.1
2015-Feb-21 00:33N 22°28' E 113°52'0 0.0
2015-Feb-20 13:33N 22°28' E 113°53'0 0.0
2015-Feb-20 11:21N 22°28' E 113°53'0 0.0
2015-Feb-20 07:27N 22°28' E 113°53'0 0.0
2015-Feb-20 05:13N 22°28' E 113°53'0 0.7
2015-Feb-20 04:33N 22°27' E 113°53'8 6.9
2015-Feb-20 03:20N 22°21' E 113°58'8 9.8
2015-Feb-20 02:33N 22°18' E 114°06'11 9.7
2015-Feb-20 01:28N 22°10' E 114°13'6 7.0
2015-Feb-20 00:33N 22°08' E 114°20'1414.0
2015-Feb-19 23:32N 22°09' E 114°35'  
2015-Feb-17 00:29N 01°16' E 104°13'1718.0
2015-Feb-16 23:33N 01°13' E 103°56'6 5.6
2015-Feb-16 22:31N 01°15' E 103°51'0 0.2
2015-Feb-16 21:31N 01°16' E 103°51'0 0.0
2015-Feb-16 20:31N 01°16' E 103°51'0 0.0
2015-Feb-16 19:31N 01°16' E 103°51'0 0.1
2015-Feb-16 18:31N 01°16' E 103°50'0 0.0
2015-Feb-16 17:31N 01°16' E 103°50'0 0.1
2015-Feb-16 16:19N 01°16' E 103°51'0 0.0
2015-Feb-16 15:28N 01°16' E 103°51'0 0.0
2015-Feb-16 14:25N 01°16' E 103°51'0 0.1
2015-Feb-16 13:28N 01°16' E 103°50'0 0.0
2015-Feb-16 12:31N 01°16' E 103°50'0 0.1
2015-Feb-16 11:25N 01°16' E 103°51'0 0.0
2015-Feb-16 10:19N 01°16' E 103°51'0 0.0
2015-Feb-16 09:31N 01°16' E 103°51'0 0.0
2015-Feb-16 07:25N 01°16' E 103°51'0 0.0
2015-Feb-16 06:25N 01°16' E 103°51'0 0.0
2015-Feb-16 05:31N 01°16' E 103°51'0 0.0
2015-Feb-16 04:31N 01°16' E 103°51'0 0.1
2015-Feb-16 03:25N 01°16' E 103°50'0 0.1
2015-Feb-16 02:31N 01°16' E 103°51'0 0.0
2015-Feb-16 00:31N 01°16' E 103°50'0 0.1
2015-Feb-15 23:21N 01°16' E 103°51'0 0.1
2015-Feb-15 22:21N 01°16' E 103°50'0 0.0
2015-Feb-15 21:33N 01°16' E 103°50'0 0.0
2015-Feb-15 20:15N 01°16' E 103°51'0 0.0
2015-Feb-15 19:06N 01°16' E 103°51'0 0.1
2015-Feb-15 18:33N 01°16' E 103°50'0 0.1
2015-Feb-15 17:24N 01°16' E 103°51'0 0.1
2015-Feb-15 16:33N 01°16' E 103°50'0 0.0
2015-Feb-15 14:30N 01°16' E 103°51'0 0.0
2015-Feb-15 13:15N 01°16' E 103°50'0 0.3
2015-Feb-15 12:33N 01°16' E 103°51'1 1.4
2015-Feb-15 11:33N 01°15' E 103°52'7 6.5
2015-Feb-15 10:32N 01°15' E 103°58'8 8.2
2015-Feb-15 09:33N 01°17' E 104°06'  
Track history (hours):
 
Tides and Currents Weather Stations Pressure Air Temp Water Temp Dewpoint Dewpoint Depression Visibility Wind Speed Wind Dir Waves Ship Positions

APL New Jersey

Last reported at 2015-Feb-22 18:13 UTC. Time now 2015-Mar-02 16:35 UTC.
Position N 22°50' E 119°53'.

Length 293 m; draft 13 m.

Type: Cargo ship. MMSI: 636013522.

Date/timePositionNaut miles runAvg speedWind from/ knotsBaromVisibWave heightAir tempDewpointWater temp
2015-Feb-22 18:13N 22°50' E 119°53'1218.9
2015-Feb-22 17:33N 22°40' E 120°01'1616.4
2015-Feb-22 16:33N 22°33' E 120°17'2 2.1
2015-Feb-22 15:33N 22°34' E 120°19'0 0.0
2015-Feb-22 14:27N 22°34' E 120°19'0 0.0
2015-Feb-22 13:33N 22°34' E 120°19'0 0.0
2015-Feb-22 12:33N 22°34' E 120°19'0 0.0
2015-Feb-22 11:33N 22°34' E 120°19'0 0.0
2015-Feb-22 10:33N 22°34' E 120°19'0 0.0
2015-Feb-22 09:33N 22°34' E 120°19'0 0.0
2015-Feb-22 08:33N 22°34' E 120°19'0 0.0
2015-Feb-22 07:33N 22°34' E 120°19'0 0.0
2015-Feb-22 06:33N 22°34' E 120°19'0 0.0
2015-Feb-22 05:21N 22°34' E 120°19'0 0.0
2015-Feb-22 04:27N 22°34' E 120°19'0 0.0
2015-Feb-22 03:33N 22°34' E 120°19'0 0.0
2015-Feb-22 02:33N 22°34' E 120°19'0 0.0
2015-Feb-22 01:33N 22°34' E 120°19'0 0.0
2015-Feb-22 00:33N 22°34' E 120°19'0 0.0
2015-Feb-21 23:21N 22°34' E 120°19'0 0.0
2015-Feb-21 22:33N 22°34' E 120°19'5 4.9
2015-Feb-21 21:33N 22°32' E 120°14'7 7.0
2015-Feb-21 20:33N 22°31' E 120°07'8 7.8
2015-Feb-21 19:33N 22°30' E 119°58'1212.2
2015-Feb-21 18:33N 22°30' E 119°45'1918.2
2015-Feb-21 17:32N 22°28' E 119°25'27721.3
2015-Feb-21 04:33N 22°07' E 114°27'1514.2
2015-Feb-21 03:28N 22°12' E 114°11'1011.2
2015-Feb-21 02:33N 22°21' E 114°05'1010.0
2015-Feb-21 01:33N 22°23' E 113°54'5 5.1
2015-Feb-21 00:33N 22°28' E 113°52'0 0.0
2015-Feb-20 13:33N 22°28' E 113°53'0 0.0
2015-Feb-20 11:21N 22°28' E 113°53'0 0.0
2015-Feb-20 07:27N 22°28' E 113°53'0 0.0
2015-Feb-20 05:13N 22°28' E 113°53'0 0.7
2015-Feb-20 04:33N 22°27' E 113°53'8 6.9
2015-Feb-20 03:20N 22°21' E 113°58'8 9.8
2015-Feb-20 02:33N 22°18' E 114°06'11 9.7
2015-Feb-20 01:28N 22°10' E 114°13'6 7.0
2015-Feb-20 00:33N 22°08' E 114°20'1414.0
2015-Feb-19 23:32N 22°09' E 114°35'  
2015-Feb-17 00:29N 01°16' E 104°13'1718.0
2015-Feb-16 23:33N 01°13' E 103°56'6 5.6
2015-Feb-16 22:31N 01°15' E 103°51'0 0.2
2015-Feb-16 21:31N 01°16' E 103°51'0 0.0
2015-Feb-16 20:31N 01°16' E 103°51'0 0.0
2015-Feb-16 19:31N 01°16' E 103°51'0 0.1
2015-Feb-16 18:31N 01°16' E 103°50'0 0.0
2015-Feb-16 17:31N 01°16' E 103°50'0 0.1
2015-Feb-16 16:19N 01°16' E 103°51'0 0.0
2015-Feb-16 15:28N 01°16' E 103°51'0 0.0
2015-Feb-16 14:25N 01°16' E 103°51'0 0.1
2015-Feb-16 13:28N 01°16' E 103°50'0 0.0
2015-Feb-16 12:31N 01°16' E 103°50'0 0.1
2015-Feb-16 11:25N 01°16' E 103°51'0 0.0
2015-Feb-16 10:19N 01°16' E 103°51'0 0.0
2015-Feb-16 09:31N 01°16' E 103°51'0 0.0
2015-Feb-16 07:25N 01°16' E 103°51'0 0.0
2015-Feb-16 06:25N 01°16' E 103°51'0 0.0
2015-Feb-16 05:31N 01°16' E 103°51'0 0.0
2015-Feb-16 04:31N 01°16' E 103°51'0 0.1
2015-Feb-16 03:25N 01°16' E 103°50'0 0.1
2015-Feb-16 02:31N 01°16' E 103°51'0 0.0
2015-Feb-16 00:31N 01°16' E 103°50'0 0.1
2015-Feb-15 23:21N 01°16' E 103°51'0 0.1
2015-Feb-15 22:21N 01°16' E 103°50'0 0.0
2015-Feb-15 21:33N 01°16' E 103°50'0 0.0
2015-Feb-15 20:15N 01°16' E 103°51'0 0.0
2015-Feb-15 19:06N 01°16' E 103°51'0 0.1
2015-Feb-15 18:33N 01°16' E 103°50'0 0.1
2015-Feb-15 17:24N 01°16' E 103°51'0 0.1
2015-Feb-15 16:33N 01°16' E 103°50'0 0.0
2015-Feb-15 14:30N 01°16' E 103°51'0 0.0
2015-Feb-15 13:15N 01°16' E 103°50'0 0.3
2015-Feb-15 12:33N 01°16' E 103°51'1 1.4
2015-Feb-15 11:33N 01°15' E 103°52'7 6.5
2015-Feb-15 10:32N 01°15' E 103°58'8 8.2
2015-Feb-15 09:33N 01°17' E 104°06'  

Dump ship's entire track history